Time;durP1;ratioP1;P1;durP2;ratioP2;P2;SDS_P1;SDS_P2;PMS_P1;PMS_P2;Temp;Humidity;BMP_temperature;BMP_pressure;BME280_temperature;BME280_humidity;BME280_pressure;Samples;Min_cycle;Max_cycle;Signal;HPM_P1;HPM_P2
2022/05/25 00:02:20;;;;;;;5.32;3.65;;;15.40;99.90;;;;;;5073034;28;20627;-88
2022/05/25 00:04:51;;;;;;;5.80;3.47;;;15.50;99.90;;;;;;5071676;28;20208;-93
2022/05/25 00:07:22;;;;;;;5.28;3.22;;;15.50;99.90;;;;;;5065415;28;20224;-89
2022/05/25 00:09:53;;;;;;;4.15;3.08;;;15.60;99.90;;;;;;5074564;28;20196;-91
2022/05/25 00:12:27;;;;;;;5.57;2.90;;;15.70;99.90;;;;;;5077710;28;20189;-95
2022/05/25 00:14:58;;;;;;;3.00;2.25;;;15.80;99.90;;;;;;5075036;28;20201;-93
2022/05/25 00:17:28;;;;;;;4.38;2.10;;;15.90;99.90;;;;;;5072756;28;20722;-93
2022/05/25 00:20:02;;;;;;;2.90;2.13;;;16.00;99.90;;;;;;5073062;28;20212;-91
2022/05/25 00:22:41;;;;;;;3.53;1.90;;;16.00;99.90;;;;;;5073910;28;20640;-89
2022/05/25 00:25:13;;;;;;;3.28;2.17;;;16.10;99.90;;;;;;5074140;28;20751;-86
2022/05/25 00:27:47;;;;;;;3.08;1.90;;;16.10;99.90;;;;;;5068905;28;20220;-86
2022/05/25 00:30:19;;;;;;;4.75;2.10;;;16.30;99.90;;;;;;5074175;28;20197;-91
2022/05/25 00:32:50;;;;;;;2.45;1.70;;;16.40;99.90;;;;;;5073065;28;20200;-90
2022/05/25 00:35:23;;;;;;;4.88;1.98;;;16.50;99.90;;;;;;5073712;28;20240;-95
2022/05/25 00:37:53;;;;;;;3.05;1.90;;;16.60;99.90;;;;;;5073531;28;20205;-93
2022/05/25 00:40:27;;;;;;;4.65;2.33;;;16.60;99.90;;;;;;5079493;28;20196;-91
2022/05/25 00:42:59;;;;;;;7.43;2.63;;;16.70;99.90;;;;;;5073450;28;20623;-91
2022/05/25 00:45:31;;;;;;;2.72;2.20;;;16.80;99.90;;;;;;5078044;28;20192;-94
2022/05/25 00:48:02;;;;;;;5.00;1.98;;;16.90;99.90;;;;;;5084813;28;20219;-90
2022/05/25 00:51:12;;;;;;;3.22;1.80;;;16.90;99.90;;;;;;5073257;28;20193;-90
2022/05/25 00:53:24;;;;;;;2.75;1.60;;;17.00;99.90;;;;;;5074018;28;20200;-92
2022/05/25 00:55:57;;;;;;;8.07;2.30;;;17.00;99.90;;;;;;5074031;28;20249;-90
2022/05/25 00:58:29;;;;;;;4.45;1.35;;;17.00;99.90;;;;;;5071633;28;20197;-89
2022/05/25 01:01:00;;;;;;;2.70;1.50;;;17.00;99.90;;;;;;5071669;28;20197;-89
2022/05/25 01:03:32;;;;;;;2.72;1.02;;;17.20;99.90;;;;;;5073318;28;20192;-85
2022/05/25 01:06:11;;;;;;;2.13;0.80;;;17.30;99.90;;;;;;5072461;28;20205;-86
2022/05/25 01:08:55;;;;;;;3.20;0.73;;;17.40;99.90;;;;;;5072885;28;20299;-87
2022/05/25 01:11:39;;;;;;;1.90;0.98;;;17.50;99.90;;;;;;5070721;28;20201;-87
2022/05/25 01:14:29;;;;;;;3.22;1.27;;;17.60;99.90;;;;;;5072578;28;20200;-87
2022/05/25 01:17:05;;;;;;;3.15;1.13;;;17.60;99.90;;;;;;5078306;28;20280;-87
2022/05/25 01:20:02;;;;;;;2.38;0.90;;;17.70;99.90;;;;;;5073014;28;20245;-88
2022/05/25 01:22:56;;;;;;;2.97;0.90;;;17.80;99.90;;;;;;5072506;28;20601;-86
2022/05/25 01:25:55;;;;;;;0.90;0.60;;;17.80;99.90;;;;;;5065299;28;20684;-85
2022/05/25 01:28:36;;;;;;;1.17;0.60;;;17.90;99.90;;;;;;5040552;28;20586;-85
2022/05/25 01:31:14;;;;;;;2.35;0.70;;;18.00;99.90;;;;;;5073748;28;20602;-85
2022/05/25 01:33:49;;;;;;;2.67;0.90;;;18.10;99.90;;;;;;5073171;28;20587;-87
2022/05/25 01:36:25;;;;;;;2.05;0.85;;;18.10;99.90;;;;;;5072792;28;20196;-87
2022/05/25 01:39:03;;;;;;;1.40;1.05;;;18.30;99.90;;;;;;5072138;28;20264;-86
2022/05/25 01:41:40;;;;;;;1.63;0.80;;;18.30;99.90;;;;;;5069184;28;20267;-83
2022/05/25 01:44:15;;;;;;;8.90;1.92;;;18.40;99.90;;;;;;5065253;28;20181;-83
2022/05/25 01:46:50;;;;;;;3.08;1.17;;;18.40;99.90;;;;;;5072432;28;20558;-81
2022/05/25 01:49:24;;;;;;;1.83;1.10;;;18.50;99.90;;;;;;5072698;28;20204;-82
2022/05/25 01:51:57;;;;;;;3.17;1.10;;;18.50;99.90;;;;;;5072367;28;20193;-81
2022/05/25 01:54:35;;;;;;;1.90;0.90;;;18.50;99.90;;;;;;5072805;28;20193;-81
2022/05/25 01:57:12;;;;;;;1.77;0.90;;;18.70;99.90;;;;;;5071914;28;20636;-82
2022/05/25 01:59:44;;;;;;;1.85;0.90;;;18.80;99.90;;;;;;5072026;28;20249;-82
2022/05/25 02:05:06;;;;;;;3.10;0.80;;;19.00;99.90;;;;;;5071291;28;20647;-81
2022/05/25 02:07:52;;;;;;;2.75;0.80;;;19.10;99.90;;;;;;5071610;28;20185;-81
2022/05/25 02:10:36;;;;;;;1.15;0.60;;;19.10;99.90;;;;;;5066222;28;20197;-80
2022/05/25 02:13:26;;;;;;;1.27;0.60;;;19.00;99.90;;;;;;5072733;28;20197;-81
2022/05/25 02:16:17;;;;;;;1.45;0.65;;;18.90;99.90;;;;;;5071482;28;20532;-80
2022/05/25 02:18:59;;;;;;;2.58;0.70;;;18.90;99.90;;;;;;5075350;28;20271;-80
2022/05/25 02:21:34;;;;;;;2.25;0.70;;;18.90;99.90;;;;;;5067102;28;20197;-79
2022/05/25 02:24:12;;;;;;;2.08;0.60;;;18.90;99.90;;;;;;5077858;28;20249;-80
2022/05/25 02:26:50;;;;;;;3.28;1.10;;;18.80;99.90;;;;;;5075573;28;20196;-79
2022/05/25 02:29:25;;;;;;;1.30;0.75;;;18.70;99.90;;;;;;5073159;28;20219;-80
2022/05/25 02:32:02;;;;;;;1.30;0.63;;;18.60;99.90;;;;;;5075094;28;20201;-80
2022/05/25 02:34:35;;;;;;;1.15;0.70;;;18.50;99.90;;;;;;5068049;28;20273;-79
2022/05/25 02:37:06;;;;;;;2.22;0.90;;;18.30;99.90;;;;;;5073220;28;20207;-80
2022/05/25 02:39:37;;;;;;;1.27;0.70;;;18.20;99.90;;;;;;5074827;28;20212;-80
2022/05/25 02:42:15;;;;;;;1.40;0.68;;;18.20;99.90;;;;;;5067251;28;20193;-80
2022/05/25 02:44:46;;;;;;;0.82;0.63;;;18.30;99.90;;;;;;5072668;28;20197;-79
2022/05/25 02:47:17;;;;;;;2.35;0.60;;;18.50;99.90;;;;;;5075394;28;20193;-80
2022/05/25 02:49:49;;;;;;;3.03;0.55;;;18.70;99.90;;;;;;5074622;28;20204;-80
2022/05/25 02:52:20;;;;;;;1.45;0.50;;;18.80;99.90;;;;;;5074893;28;20207;-79
2022/05/25 02:54:51;;;;;;;0.75;0.50;;;19.00;99.90;;;;;;5075439;28;20525;-80
2022/05/25 02:57:21;;;;;;;0.80;0.47;;;18.90;99.90;;;;;;5074759;28;20251;-80
2022/05/25 02:59:52;;;;;;;2.25;1.52;;;18.80;99.90;;;;;;5069329;28;20204;-79
2022/05/25 03:02:23;;;;;;;0.70;0.25;;;18.70;99.90;;;;;;5075226;28;20189;-77
2022/05/25 03:04:55;;;;;;;1.55;0.35;;;18.60;99.90;;;;;;5072257;28;20185;-79
2022/05/25 03:07:26;;;;;;;1.63;0.30;;;18.40;99.90;;;;;;5074716;28;20247;-79
2022/05/25 03:09:56;;;;;;;1.20;0.30;;;18.30;99.90;;;;;;5075115;28;20287;-79
2022/05/25 03:12:27;;;;;;;0.65;0.30;;;18.10;99.90;;;;;;5073327;28;20200;-79
2022/05/25 03:14:57;;;;;;;0.38;0.22;;;18.00;99.90;;;;;;5071899;28;20594;-79
2022/05/25 03:17:28;;;;;;;2.72;0.40;;;17.90;99.90;;;;;;5074457;28;20225;-78
2022/05/25 03:20:01;;;;;;;0.38;0.20;;;17.90;99.90;;;;;;5075044;28;20197;-78
2022/05/25 03:22:34;;;;;;;1.42;0.50;;;18.00;99.90;;;;;;5074730;28;20193;-78
2022/05/25 03:25:05;;;;;;;0.60;0.40;;;18.10;99.90;;;;;;5068809;28;20192;-78
2022/05/25 03:27:35;;;;;;;0.60;0.22;;;18.30;99.90;;;;;;5073669;28;20585;-77
2022/05/25 03:30:06;;;;;;;3.55;0.80;;;18.40;99.90;;;;;;5074776;28;20213;-78
2022/05/25 03:32:37;;;;;;;0.90;0.40;;;18.50;99.90;;;;;;5074613;28;20239;-78
2022/05/25 03:35:11;;;;;;;0.88;0.50;;;18.50;99.90;;;;;;5074215;28;20551;-77
2022/05/25 03:37:42;;;;;;;2.55;0.40;;;18.50;99.90;;;;;;5074172;28;20680;-78
2022/05/25 03:40:16;;;;;;;2.90;0.30;;;18.50;99.90;;;;;;5074652;28;20684;-78
2022/05/25 03:42:48;;;;;;;2.45;0.30;;;18.50;99.90;;;;;;5072726;28;20259;-78
2022/05/25 03:45:19;;;;;;;0.65;0.40;;;18.40;99.90;;;;;;5074442;28;20189;-78
2022/05/25 03:47:50;;;;;;;1.23;0.50;;;18.40;99.90;;;;;;5074049;28;20193;-79
2022/05/25 03:50:23;;;;;;;1.83;0.40;;;18.30;99.90;;;;;;5073947;28;20225;-78
2022/05/25 03:52:53;;;;;;;1.10;0.50;;;18.20;99.90;;;;;;5072203;28;20189;-78
2022/05/25 03:55:24;;;;;;;1.52;0.47;;;18.20;99.90;;;;;;5073596;28;20235;-78
2022/05/25 03:57:55;;;;;;;2.78;0.60;;;18.20;99.90;;;;;;5072313;28;20243;-79
2022/05/25 04:00:25;;;;;;;1.60;0.60;;;18.20;99.90;;;;;;5073565;28;20250;-78
2022/05/25 04:02:59;;;;;;;3.20;0.60;;;18.20;99.90;;;;;;5073465;28;20235;-77
2022/05/25 04:05:32;;;;;;;1.00;0.50;;;18.10;99.90;;;;;;5073349;28;20636;-78
2022/05/25 04:08:03;;;;;;;2.47;0.77;;;18.10;99.90;;;;;;5072139;28;20205;-78
2022/05/25 04:10:34;;;;;;;1.63;0.70;;;18.20;99.90;;;;;;5073076;28;20205;-79
2022/05/25 04:13:05;;;;;;;3.28;0.80;;;18.20;99.90;;;;;;5067699;28;20234;-78
2022/05/25 04:15:36;;;;;;;3.63;1.00;;;18.20;99.90;;;;;;5069081;28;20205;-77
2022/05/25 04:18:07;;;;;;;3.97;1.08;;;18.30;99.90;;;;;;5069683;28;20650;-77
2022/05/25 04:20:39;;;;;;;3.65;0.80;;;18.30;99.90;;;;;;5069456;28;20270;-78
2022/05/25 04:23:13;;;;;;;1.98;0.63;;;18.30;99.90;;;;;;5074447;28;20196;-78
2022/05/25 04:25:44;;;;;;;2.00;0.80;;;18.30;99.90;;;;;;5072005;28;20243;-79
2022/05/25 04:28:15;;;;;;;1.75;0.60;;;18.30;99.90;;;;;;5070715;28;20202;-79
2022/05/25 04:30:46;;;;;;;2.78;0.75;;;18.40;99.90;;;;;;5075167;28;20258;-78
2022/05/25 04:33:17;;;;;;;3.33;0.60;;;18.40;99.90;;;;;;5071027;28;20197;-80
2022/05/25 04:35:49;;;;;;;3.85;0.90;;;18.30;99.90;;;;;;5070826;28;20229;-77
2022/05/25 04:38:20;;;;;;;2.47;0.90;;;18.30;99.90;;;;;;5070300;28;20205;-78
2022/05/25 04:40:51;;;;;;;3.47;0.63;;;18.20;99.90;;;;;;5070777;28;20189;-77
2022/05/25 04:43:23;;;;;;;1.75;0.60;;;18.20;99.90;;;;;;5072067;28;20197;-78
2022/05/25 04:45:55;;;;;;;2.83;0.50;;;18.20;99.90;;;;;;5067702;28;20736;-78
2022/05/25 04:48:26;;;;;;;2.88;0.63;;;18.10;99.90;;;;;;5064531;28;20204;-78
2022/05/25 04:50:59;;;;;;;3.25;0.65;;;18.10;99.90;;;;;;5072758;28;20193;-78
2022/05/25 04:53:30;;;;;;;2.90;0.85;;;18.00;99.90;;;;;;5072285;28;20200;-78
2022/05/25 04:58:49;;;;;;;2.05;0.60;;;18.00;99.90;;;;;;5071501;28;20290;-78
2022/05/25 05:01:20;;;;;;;2.58;0.60;;;17.90;99.90;;;;;;5070604;28;20193;-78
2022/05/25 05:03:51;;;;;;;2.63;0.60;;;17.90;99.90;;;;;;5075149;28;20201;-79
2022/05/25 05:06:23;;;;;;;2.67;0.40;;;17.80;99.90;;;;;;5067022;28;20205;-77
2022/05/25 05:08:54;;;;;;;1.58;0.50;;;17.70;99.90;;;;;;5071948;28;20216;-78
2022/05/25 05:11:24;;;;;;;2.42;0.75;;;17.70;99.90;;;;;;5071400;28;20197;-78
2022/05/25 05:13:56;;;;;;;3.25;0.50;;;17.70;99.90;;;;;;5069643;28;20554;-78
2022/05/25 05:16:26;;;;;;;1.40;0.50;;;17.70;99.90;;;;;;5071839;28;20201;-76
2022/05/25 05:18:57;;;;;;;1.77;0.40;;;17.70;99.90;;;;;;5070937;28;20715;-77
2022/05/25 05:21:30;;;;;;;2.13;0.60;;;17.60;99.90;;;;;;5070707;28;20196;-77
2022/05/25 05:24:00;;;;;;;0.52;0.25;;;17.60;99.90;;;;;;5071681;28;20257;-77
2022/05/25 05:26:32;;;;;;;0.88;0.40;;;17.60;99.90;;;;;;5071571;28;20200;-77
2022/05/25 05:29:02;;;;;;;2.20;0.50;;;17.60;99.90;;;;;;5070179;28;20252;-77
2022/05/25 05:31:33;;;;;;;1.55;0.40;;;17.60;99.90;;;;;;5071524;28;20189;-78
2022/05/25 05:34:04;;;;;;;1.25;0.30;;;17.60;99.90;;;;;;5070855;28;20196;-77
2022/05/25 05:36:42;;;;;;;0.85;0.30;;;17.70;99.90;;;;;;5071476;28;20242;-78
2022/05/25 05:39:15;;;;;;;0.57;0.30;;;17.70;99.90;;;;;;5068869;28;20188;-77
2022/05/25 05:41:51;;;;;;;2.40;0.47;;;17.70;99.90;;;;;;5070273;28;20197;-77
2022/05/25 05:44:24;;;;;;;1.25;0.43;;;17.80;99.90;;;;;;5067379;28;20539;-79
2022/05/25 05:46:58;;;;;;;0.50;0.28;;;17.70;99.90;;;;;;5070047;28;20655;-78
2022/05/25 05:49:29;;;;;;;0.98;0.35;;;17.70;99.90;;;;;;5066354;28;20216;-78
2022/05/25 05:52:01;;;;;;;1.10;0.40;;;17.70;99.90;;;;;;5073937;28;20259;-78
2022/05/25 05:54:32;;;;;;;1.27;0.30;;;17.70;99.90;;;;;;5075526;28;20189;-78
2022/05/25 05:57:03;;;;;;;1.65;0.40;;;17.70;99.90;;;;;;5073805;28;20253;-78
2022/05/25 05:59:34;;;;;;;1.40;0.40;;;17.70;99.90;;;;;;5075658;28;20200;-78
2022/05/25 06:02:05;;;;;;;0.73;0.40;;;17.60;99.90;;;;;;5075315;28;20250;-79
2022/05/25 06:04:35;;;;;;;2.33;0.60;;;17.50;99.90;;;;;;5072962;28;20196;-78
2022/05/25 06:07:08;;;;;;;2.25;0.30;;;17.50;99.90;;;;;;5073942;28;21716;-78
2022/05/25 06:09:39;;;;;;;1.08;0.40;;;17.40;99.90;;;;;;5072339;28;20213;-79
2022/05/25 06:12:10;;;;;;;0.55;0.30;;;17.40;99.90;;;;;;5077853;28;20189;-79
2022/05/25 06:14:40;;;;;;;0.90;0.35;;;17.30;99.90;;;;;;5073229;28;20551;-78
2022/05/25 06:19:58;;;;;;;1.10;0.50;;;17.20;99.90;;;;;;5072937;28;20199;-79
2022/05/25 06:22:31;;;;;;;0.70;0.40;;;17.20;99.90;;;;;;5074924;28;20204;-80
2022/05/25 06:25:02;;;;;;;0.55;0.20;;;17.10;99.90;;;;;;5074332;28;20185;-79
2022/05/25 06:27:33;;;;;;;1.45;0.50;;;17.00;99.90;;;;;;5074898;28;20250;-78
2022/05/25 06:30:03;;;;;;;1.02;0.50;;;17.00;99.90;;;;;;5069469;28;20216;-78
2022/05/25 06:32:34;;;;;;;1.45;0.40;;;17.00;99.90;;;;;;5073692;28;22032;-78
2022/05/25 06:35:05;;;;;;;1.17;0.52;;;16.90;99.90;;;;;;5073489;28;20221;-79
2022/05/25 06:37:37;;;;;;;1.95;0.70;;;16.90;99.90;;;;;;5071011;28;20193;-79
2022/05/25 06:40:09;;;;;;;0.95;0.52;;;16.90;99.90;;;;;;5073569;28;20188;-79
2022/05/25 06:42:41;;;;;;;2.00;0.60;;;16.80;99.90;;;;;;5072288;28;20655;-79
2022/05/25 06:45:13;;;;;;;1.05;0.50;;;16.70;99.90;;;;;;5072817;28;20219;-79
2022/05/25 06:47:44;;;;;;;1.30;0.55;;;16.70;99.90;;;;;;5074506;28;20201;-79
2022/05/25 06:50:15;;;;;;;0.77;0.38;;;16.60;99.90;;;;;;5074181;28;20213;-78
2022/05/25 06:52:48;;;;;;;3.15;0.47;;;16.60;99.90;;;;;;5074643;28;20219;-78
2022/05/25 06:55:18;;;;;;;1.83;0.63;;;16.50;99.90;;;;;;5073465;28;20231;-78
2022/05/25 06:57:49;;;;;;;1.05;0.70;;;16.50;99.90;;;;;;5073723;28;20189;-77
2022/05/25 07:00:21;;;;;;;2.42;0.70;;;16.40;99.90;;;;;;5074905;28;20672;-78
2022/05/25 07:02:52;;;;;;;2.53;0.75;;;16.40;99.90;;;;;;5073812;28;20251;-78
2022/05/25 07:05:23;;;;;;;3.55;0.70;;;16.30;99.90;;;;;;5072525;28;20206;-79
2022/05/25 07:07:55;;;;;;;1.88;0.73;;;16.30;99.90;;;;;;5073128;28;20192;-79
2022/05/25 07:10:26;;;;;;;3.53;0.80;;;16.30;99.90;;;;;;5073623;28;20208;-80
2022/05/25 07:12:57;;;;;;;2.17;0.75;;;16.30;99.90;;;;;;5073436;28;20193;-78
2022/05/25 07:15:27;;;;;;;1.95;0.80;;;16.20;99.90;;;;;;5072533;28;20234;-79
2022/05/25 07:17:58;;;;;;;1.85;0.50;;;16.20;99.90;;;;;;5073895;28;20220;-79
2022/05/25 07:20:29;;;;;;;1.55;0.52;;;16.20;99.90;;;;;;5068514;28;20186;-79
2022/05/25 07:23:01;;;;;;;0.82;0.52;;;16.20;99.90;;;;;;5072678;28;20197;-79
2022/05/25 07:25:32;;;;;;;2.08;0.80;;;16.10;99.90;;;;;;5072100;28;20541;-79
2022/05/25 07:28:03;;;;;;;1.48;0.55;;;16.10;99.90;;;;;;5067324;28;20220;-79
2022/05/25 07:30:33;;;;;;;3.95;0.77;;;16.10;99.90;;;;;;5071389;28;20991;-78
2022/05/25 07:33:04;;;;;;;3.67;0.88;;;16.10;99.90;;;;;;5075196;28;20617;-79
2022/05/25 07:35:35;;;;;;;1.25;0.60;;;16.00;99.90;;;;;;5071173;28;20227;-78
2022/05/25 07:38:08;;;;;;;3.28;0.80;;;16.00;99.90;;;;;;5073103;28;20615;-79
2022/05/25 07:40:42;;;;;;;2.20;0.80;;;15.90;99.90;;;;;;5073350;28;20197;-80
2022/05/25 07:43:15;;;;;;;2.03;0.80;;;16.00;99.90;;;;;;5070640;28;20197;-81
2022/05/25 07:45:46;;;;;;;1.98;1.00;;;15.90;99.90;;;;;;5072077;28;20197;-80
2022/05/25 07:48:17;;;;;;;1.80;0.60;;;15.90;99.90;;;;;;5073418;28;20185;-80
2022/05/25 07:50:48;;;;;;;1.67;0.90;;;15.90;99.90;;;;;;5073502;28;20282;-80
2022/05/25 07:56:08;;;;;;;2.38;0.75;;;15.80;99.90;;;;;;5073135;28;20196;-80
2022/05/25 07:58:39;;;;;;;3.53;0.75;;;15.70;99.90;;;;;;5071365;28;20196;-80
2022/05/25 08:01:13;;;;;;;1.90;1.00;;;15.70;99.90;;;;;;5073070;28;20197;-80
2022/05/25 08:06:31;;;;;;;2.58;1.08;;;15.70;99.90;;;;;;5066184;28;20683;-82
2022/05/25 08:09:04;;;;;;;3.95;1.00;;;15.70;99.90;;;;;;5072422;28;20593;-81
2022/05/25 08:11:37;;;;;;;3.20;1.02;;;15.60;99.90;;;;;;5069427;28;20221;-80
2022/05/25 08:14:07;;;;;;;2.28;1.20;;;15.60;99.90;;;;;;5073931;28;20193;-81
2022/05/25 08:16:38;;;;;;;2.42;1.30;;;15.60;99.90;;;;;;5069206;28;20197;-83
2022/05/25 08:19:09;;;;;;;3.35;1.30;;;15.60;99.90;;;;;;5069173;28;20225;-81
2022/05/25 08:21:39;;;;;;;2.25;1.20;;;15.50;99.90;;;;;;5070817;28;20192;-81
2022/05/25 08:24:12;;;;;;;1.70;1.20;;;15.50;99.90;;;;;;5071233;28;20197;-81
2022/05/25 08:26:43;;;;;;;5.68;1.50;;;15.50;99.90;;;;;;5072024;28;20196;-81
2022/05/25 08:29:14;;;;;;;2.22;1.40;;;15.40;99.90;;;;;;5071100;28;20224;-82
2022/05/25 08:31:45;;;;;;;2.50;1.30;;;15.40;99.90;;;;;;5070299;28;20220;-80
2022/05/25 08:34:15;;;;;;;1.92;1.20;;;15.40;99.90;;;;;;5071890;28;20225;-81
2022/05/25 08:36:46;;;;;;;4.07;1.40;;;15.30;99.90;;;;;;5069141;28;20719;-82
2022/05/25 08:39:18;;;;;;;3.53;1.75;;;15.30;99.90;;;;;;5066983;28;20203;-81
2022/05/25 08:41:51;;;;;;;3.88;1.58;;;15.30;99.90;;;;;;5072780;28;20280;-82
2022/05/25 08:44:23;;;;;;;3.88;1.77;;;15.20;99.90;;;;;;5070676;28;20201;-81
2022/05/25 08:46:58;;;;;;;3.28;1.65;;;15.20;99.90;;;;;;5069746;28;20196;-81
2022/05/25 08:49:32;;;;;;;5.38;1.80;;;15.10;99.90;;;;;;5068979;28;20188;-81
2022/05/25 08:52:06;;;;;;;3.45;1.33;;;15.10;99.90;;;;;;5069787;28;20224;-80
2022/05/25 08:54:40;;;;;;;4.63;1.60;;;15.10;99.90;;;;;;5069368;28;20282;-82
2022/05/25 08:57:17;;;;;;;2.70;1.70;;;15.10;99.90;;;;;;5068712;28;20201;-82
2022/05/25 08:59:53;;;;;;;3.50;1.60;;;15.00;99.90;;;;;;5067381;28;20572;-81
2022/05/25 09:02:31;;;;;;;3.20;1.60;;;15.00;99.90;;;;;;5067629;28;20415;-81
2022/05/25 09:05:09;;;;;;;6.10;1.92;;;15.00;99.90;;;;;;5071171;28;20655;-82
2022/05/25 09:07:47;;;;;;;4.10;1.80;;;15.00;99.90;;;;;;5070715;28;20242;-82
2022/05/25 09:10:20;;;;;;;4.50;1.75;;;15.00;99.90;;;;;;5071522;28;20560;-82
2022/05/25 09:12:54;;;;;;;4.78;1.63;;;14.90;99.90;;;;;;5071586;28;20197;-82
2022/05/25 09:15:28;;;;;;;3.47;1.55;;;14.90;99.90;;;;;;5070702;28;20245;-82
2022/05/25 09:18:03;;;;;;;2.58;1.63;;;14.80;99.90;;;;;;5072599;28;20224;-81
2022/05/25 09:20:39;;;;;;;3.40;1.63;;;14.80;99.90;;;;;;5072980;28;20254;-81
2022/05/25 09:23:10;;;;;;;4.72;1.70;;;14.80;99.90;;;;;;5072712;28;20189;-81
2022/05/25 09:25:43;;;;;;;2.90;1.83;;;14.70;99.90;;;;;;5072261;28;20192;-82
2022/05/25 09:28:20;;;;;;;4.38;1.70;;;14.70;99.90;;;;;;5070487;28;20224;-83
2022/05/25 09:30:54;;;;;;;4.75;1.83;;;14.60;99.90;;;;;;5071506;28;20583;-82
2022/05/25 09:33:33;;;;;;;4.88;1.70;;;14.70;99.90;;;;;;5072705;28;20193;-81
2022/05/25 09:36:09;;;;;;;3.83;1.83;;;14.60;99.90;;;;;;5072239;28;20319;-82
2022/05/25 09:38:54;;;;;;;4.72;1.73;;;14.60;99.90;;;;;;5072672;28;20189;-82
2022/05/25 09:41:31;;;;;;;5.00;2.28;;;14.60;99.90;;;;;;5072738;28;20271;-80
2022/05/25 09:44:06;;;;;;;2.72;2.00;;;14.60;99.90;;;;;;5072793;28;20189;-82
2022/05/25 09:46:42;;;;;;;3.88;2.08;;;14.60;99.90;;;;;;5065816;28;20193;-82
2022/05/25 09:49:14;;;;;;;4.07;2.10;;;14.60;99.90;;;;;;5072625;28;20184;-82
2022/05/25 09:51:47;;;;;;;4.65;2.20;;;14.60;99.90;;;;;;5072590;28;20216;-81
2022/05/25 09:54:23;;;;;;;5.95;2.40;;;14.60;99.90;;;;;;5072447;28;20189;-82
2022/05/25 09:57:02;;;;;;;5.53;2.33;;;14.50;99.90;;;;;;5072603;28;20627;-81
2022/05/25 09:59:37;;;;;;;6.68;2.53;;;14.60;99.90;;;;;;5072459;28;20188;-81
2022/05/25 10:02:25;;;;;;;6.07;2.53;;;14.50;99.90;;;;;;5072079;28;20189;-81
2022/05/25 10:04:57;;;;;;;4.43;2.47;;;14.40;99.90;;;;;;5074766;28;20193;-81
2022/05/25 10:07:33;;;;;;;4.80;2.33;;;14.50;99.90;;;;;;5073609;28;20668;-82
2022/05/25 10:10:06;;;;;;;5.40;2.90;;;14.50;99.90;;;;;;5072412;28;20774;-82
2022/05/25 10:12:46;;;;;;;4.93;2.50;;;14.50;99.90;;;;;;5064243;28;20212;-82
2022/05/25 10:15:30;;;;;;;4.20;2.33;;;14.50;99.90;;;;;;5071766;28;20595;-82
2022/05/25 10:18:00;;;;;;;8.15;3.03;;;14.50;99.90;;;;;;5071949;28;20229;-82
2022/05/25 10:20:34;;;;;;;5.30;3.38;;;14.50;99.90;;;;;;5071862;28;20193;-82
2022/05/25 10:23:08;;;;;;;6.80;3.60;;;14.40;99.90;;;;;;5072083;28;20189;-82
2022/05/25 10:25:45;;;;;;;6.32;3.25;;;14.40;99.90;;;;;;5068717;28;20194;-83
2022/05/25 10:28:31;;;;;;;6.75;3.92;;;14.40;99.90;;;;;;5068501;28;20185;-79
2022/05/25 10:36:56;;;;;;;7.72;4.30;;;14.30;99.90;;;;;;5070563;28;20656;-84
2022/05/25 10:39:36;;;;;;;7.03;4.22;;;14.40;99.90;;;;;;5075061;28;20288;-81
2022/05/25 10:42:15;;;;;;;8.02;4.43;;;14.40;99.90;;;;;;5075718;28;20189;-83
2022/05/25 10:44:57;;;;;;;8.52;4.78;;;14.40;99.90;;;;;;5075240;28;20243;-84
2022/05/25 10:47:57;;;;;;;8.52;5.22;;;14.40;99.90;;;;;;5075199;28;20193;-84
2022/05/25 10:50:32;;;;;;;7.95;5.43;;;14.30;99.90;;;;;;5074067;28;20193;-83
2022/05/25 10:53:07;;;;;;;9.10;5.03;;;14.40;99.90;;;;;;5078230;28;20199;-83
2022/05/25 10:55:45;;;;;;;7.45;5.03;;;14.40;99.90;;;;;;5075016;28;20226;-82
2022/05/25 10:58:41;;;;;;;8.52;5.18;;;14.40;99.90;;;;;;5074989;28;20185;-84
2022/05/25 11:01:33;;;;;;;7.95;4.88;;;14.40;99.90;;;;;;5075615;28;20200;-84
2022/05/25 11:04:26;;;;;;;7.57;4.93;;;14.40;99.90;;;;;;5067843;28;20235;-82
2022/05/25 11:07:12;;;;;;;10.38;5.30;;;14.40;99.90;;;;;;5067905;28;20263;-84
2022/05/25 11:09:58;;;;;;;49.53;27.60;;;14.40;99.90;;;;;;5072914;28;20193;-86
2022/05/25 11:12:37;;;;;;;133.75;73.13;;;14.40;99.90;;;;;;5072761;28;20212;-85
2022/05/25 11:15:18;;;;;;;43.72;28.05;;;14.40;99.90;;;;;;5077242;28;20200;-83
2022/05/25 11:18:04;;;;;;;21.48;12.60;;;14.40;99.90;;;;;;5073728;28;20271;-84
2022/05/25 11:20:45;;;;;;;19.13;11.18;;;14.30;99.90;;;;;;5074199;28;20548;-82
2022/05/25 11:23:43;;;;;;;9.20;5.55;;;14.30;99.90;;;;;;5073648;28;20196;-85
2022/05/25 11:26:37;;;;;;;9.73;5.32;;;14.30;99.90;;;;;;5070369;28;20208;-84
2022/05/25 11:29:17;;;;;;;13.05;6.53;;;14.30;99.90;;;;;;5068835;28;20633;-85
2022/05/25 11:31:57;;;;;;;10.05;5.13;;;14.30;99.90;;;;;;5071883;28;20220;-83
2022/05/25 11:34:40;;;;;;;8.75;4.93;;;14.20;99.90;;;;;;5070121;28;20250;-83
2022/05/25 11:37:25;;;;;;;9.15;4.90;;;14.30;99.90;;;;;;5067625;28;20193;-85
2022/05/25 11:40:04;;;;;;;7.57;4.63;;;14.30;99.90;;;;;;5074167;28;20189;-85
2022/05/25 11:42:52;;;;;;;5.80;3.92;;;14.30;99.90;;;;;;5073436;28;20279;-85
2022/05/25 11:45:39;;;;;;;5.93;3.40;;;14.20;99.90;;;;;;5074988;28;20193;-83
2022/05/25 11:48:23;;;;;;;7.05;2.90;;;14.30;99.90;;;;;;5055048;28;20200;-83
2022/05/25 11:51:08;;;;;;;7.05;3.05;;;14.30;99.90;;;;;;5071112;28;20208;-84
2022/05/25 11:54:00;;;;;;;7.53;3.33;;;14.20;99.90;;;;;;5077213;28;20193;-84
2022/05/25 11:56:52;;;;;;;4.55;3.00;;;14.30;99.90;;;;;;5067541;28;20660;-85
2022/05/25 11:59:48;;;;;;;107.82;61.35;;;14.30;99.90;;;;;;5074060;28;20197;-87
2022/05/25 12:02:42;;;;;;;423.00;221.82;;;14.20;99.90;;;;;;5068805;28;20590;-85
2022/05/25 12:05:25;;;;;;;46.55;25.40;;;14.20;99.90;;;;;;5073498;28;20648;-82
2022/05/25 12:08:14;;;;;;;20.95;11.27;;;14.30;99.90;;;;;;5071219;28;20212;-84
2022/05/25 12:10:46;;;;;;;13.13;5.93;;;14.20;99.90;;;;;;5073535;28;20193;-83
2022/05/25 12:13:23;;;;;;;9.82;4.53;;;14.20;99.90;;;;;;5071054;28;20193;-83
2022/05/25 12:16:03;;;;;;;7.38;3.80;;;14.20;99.90;;;;;;5073740;28;20232;-83
2022/05/25 12:18:45;;;;;;;6.95;3.35;;;14.20;99.90;;;;;;5073463;28;20282;-83
2022/05/25 12:21:19;;;;;;;5.72;2.95;;;14.20;99.90;;;;;;5073638;28;20185;-83
2022/05/25 12:23:55;;;;;;;5.38;3.10;;;14.20;99.90;;;;;;5073365;28;20667;-84
2022/05/25 12:26:29;;;;;;;5.38;3.00;;;14.10;99.90;;;;;;5072327;28;20193;-82
2022/05/25 12:29:07;;;;;;;6.78;2.88;;;14.20;99.90;;;;;;5075982;28;20207;-84
2022/05/25 12:31:39;;;;;;;5.97;2.83;;;14.10;99.90;;;;;;5072222;28;20679;-84
2022/05/25 12:34:12;;;;;;;6.10;2.70;;;14.10;99.90;;;;;;5071262;28;20217;-84
2022/05/25 12:36:44;;;;;;;4.25;3.00;;;14.10;99.90;;;;;;5073410;28;20186;-83
2022/05/25 12:39:58;;;;;;;7.15;2.95;;;14.00;99.90;;;;;;5072117;28;20224;-82
2022/05/25 12:42:41;;;;;;;5.70;3.10;;;14.00;99.90;;;;;;5065236;28;20192;-84
2022/05/25 12:48:33;;;;;;;4.00;2.92;;;13.90;99.90;;;;;;5068020;28;20222;-83
2022/05/25 12:51:07;;;;;;;5.45;2.90;;;13.90;99.90;;;;;;5071279;28;20208;-83
2022/05/25 12:53:40;;;;;;;5.03;2.78;;;13.80;99.90;;;;;;5066501;28;20526;-83
2022/05/25 12:56:17;;;;;;;6.25;3.30;;;13.80;99.90;;;;;;5072133;28;20655;-83
2022/05/25 12:58:56;;;;;;;4.90;3.22;;;13.90;99.90;;;;;;5072327;28;20239;-83
2022/05/25 13:01:40;;;;;;;6.28;3.15;;;13.80;99.90;;;;;;5071821;28;20656;-82
2022/05/25 13:04:48;;;;;;;5.93;3.17;;;13.80;99.90;;;;;;5072911;28;20189;-83
2022/05/25 13:07:40;;;;;;;5.13;2.85;;;13.70;99.90;;;;;;5064934;28;20224;-82
2022/05/25 13:10:45;;;;;;;6.78;3.20;;;13.70;99.90;;;;;;5072851;28;20648;-82
2022/05/25 13:13:39;;;;;;;4.72;3.28;;;13.60;99.90;;;;;;5071656;28;20560;-84
2022/05/25 13:16:10;;;;;;;7.00;3.13;;;13.60;99.90;;;;;;5070180;28;20205;-83
2022/05/25 13:18:57;;;;;;;5.78;3.20;;;13.70;99.90;;;;;;5072352;28;20251;-84
2022/05/25 13:21:39;;;;;;;7.20;3.38;;;13.70;99.90;;;;;;5072106;28;20189;-82
2022/05/25 13:24:53;;;;;;;4.85;3.20;;;13.70;99.90;;;;;;5069699;28;20189;-82
2022/05/25 13:27:56;;;;;;;5.10;3.10;;;13.60;99.90;;;;;;5071062;28;20192;-83
2022/05/25 13:30:36;;;;;;;5.07;3.05;;;13.60;99.90;;;;;;5068121;28;20275;-83
2022/05/25 13:33:24;;;;;;;8.18;3.30;;;13.60;99.90;;;;;;5071210;28;21128;-82
2022/05/25 13:35:58;;;;;;;7.38;3.70;;;13.50;99.90;;;;;;5069698;28;20225;-84
2022/05/25 13:38:45;;;;;;;4.47;3.20;;;13.50;99.90;;;;;;5071249;28;20279;-83
2022/05/25 13:41:20;;;;;;;6.57;3.08;;;13.50;99.90;;;;;;5072251;28;20192;-83
2022/05/25 13:43:55;;;;;;;8.13;3.67;;;13.50;99.90;;;;;;5070161;28;20196;-83
2022/05/25 13:46:41;;;;;;;7.22;3.40;;;13.50;99.90;;;;;;5075568;28;20242;-79
2022/05/25 13:49:19;;;;;;;5.38;3.33;;;13.50;99.90;;;;;;5071581;28;20276;-81
2022/05/25 13:51:51;;;;;;;9.43;3.00;;;13.50;99.90;;;;;;5069484;28;20210;-82
2022/05/25 13:54:33;;;;;;;5.93;3.22;;;13.50;99.90;;;;;;5072135;28;20239;-81